sensor_id;sensor_type;location;lat;lon;timestamp;P1;durP1;ratioP1;P2;durP2;ratioP2
7263;SDS011;3673;52.480;13.348;2023-08-31T00:00:34;4.00;;;3.20;;
7263;SDS011;3673;52.480;13.348;2023-08-31T00:03:02;4.93;;;3.50;;
7263;SDS011;3673;52.480;13.348;2023-08-31T00:05:29;4.75;;;2.97;;
7263;SDS011;3673;52.480;13.348;2023-08-31T00:07:56;3.50;;;3.15;;
7263;SDS011;3673;52.480;13.348;2023-08-31T00:10:24;3.72;;;3.15;;
7263;SDS011;3673;52.480;13.348;2023-08-31T00:12:51;3.50;;;3.10;;
7263;SDS011;3673;52.480;13.348;2023-08-31T00:15:18;3.45;;;3.03;;
7263;SDS011;3673;52.480;13.348;2023-08-31T00:17:45;3.10;;;2.75;;
7263;SDS011;3673;52.480;13.348;2023-08-31T00:20:11;4.18;;;3.33;;
7263;SDS011;3673;52.480;13.348;2023-08-31T00:22:38;5.65;;;3.35;;
7263;SDS011;3673;52.480;13.348;2023-08-31T00:25:05;5.20;;;3.05;;
7263;SDS011;3673;52.480;13.348;2023-08-31T00:27:35;3.65;;;3.28;;
7263;SDS011;3673;52.480;13.348;2023-08-31T00:30:03;4.38;;;2.83;;
7263;SDS011;3673;52.480;13.348;2023-08-31T00:32:32;3.55;;;3.13;;
7263;SDS011;3673;52.480;13.348;2023-08-31T00:34:59;5.88;;;2.88;;
7263;SDS011;3673;52.480;13.348;2023-08-31T00:37:28;5.18;;;2.85;;
7263;SDS011;3673;52.480;13.348;2023-08-31T00:39:55;3.80;;;3.08;;
7263;SDS011;3673;52.480;13.348;2023-08-31T00:42:22;3.38;;;3.08;;
7263;SDS011;3673;52.480;13.348;2023-08-31T00:44:51;3.90;;;3.20;;
7263;SDS011;3673;52.480;13.348;2023-08-31T00:47:18;3.38;;;3.05;;
7263;SDS011;3673;52.480;13.348;2023-08-31T00:49:45;3.28;;;2.97;;
7263;SDS011;3673;52.480;13.348;2023-08-31T00:52:14;4.70;;;3.13;;
7263;SDS011;3673;52.480;13.348;2023-08-31T00:54:41;3.17;;;2.60;;
7263;SDS011;3673;52.480;13.348;2023-08-31T00:57:08;3.10;;;2.80;;
7263;SDS011;3673;52.480;13.348;2023-08-31T00:59:35;3.20;;;2.90;;
7263;SDS011;3673;52.480;13.348;2023-08-31T01:02:05;3.03;;;2.53;;
7263;SDS011;3673;52.480;13.348;2023-08-31T01:04:46;2.95;;;2.67;;
7263;SDS011;3673;52.480;13.348;2023-08-31T01:07:23;3.10;;;2.70;;
7263;SDS011;3673;52.480;13.348;2023-08-31T01:10:02;2.95;;;2.72;;
7263;SDS011;3673;52.480;13.348;2023-08-31T01:12:44;4.85;;;3.05;;
7263;SDS011;3673;52.480;13.348;2023-08-31T01:15:16;3.03;;;2.70;;
7263;SDS011;3673;52.480;13.348;2023-08-31T01:17:47;3.40;;;3.10;;
7263;SDS011;3673;52.480;13.348;2023-08-31T01:20:19;4.03;;;3.47;;
7263;SDS011;3673;52.480;13.348;2023-08-31T01:22:55;3.53;;;3.22;;
7263;SDS011;3673;52.480;13.348;2023-08-31T01:25:29;4.15;;;3.58;;
7263;SDS011;3673;52.480;13.348;2023-08-31T01:27:57;4.07;;;3.67;;
7263;SDS011;3673;52.480;13.348;2023-08-31T01:30:29;4.15;;;3.70;;
7263;SDS011;3673;52.480;13.348;2023-08-31T01:32:56;4.38;;;3.88;;
7263;SDS011;3673;52.480;13.348;2023-08-31T01:35:24;4.20;;;3.70;;
7263;SDS011;3673;52.480;13.348;2023-08-31T01:37:52;4.18;;;3.65;;
7263;SDS011;3673;52.480;13.348;2023-08-31T01:40:23;8.23;;;4.20;;
7263;SDS011;3673;52.480;13.348;2023-08-31T01:42:59;4.00;;;3.58;;
7263;SDS011;3673;52.480;13.348;2023-08-31T01:45:28;4.00;;;3.60;;
7263;SDS011;3673;52.480;13.348;2023-08-31T01:47:56;3.53;;;3.22;;
7263;SDS011;3673;52.480;13.348;2023-08-31T01:50:23;4.85;;;3.28;;
7263;SDS011;3673;52.480;13.348;2023-08-31T01:52:50;5.07;;;3.30;;
7263;SDS011;3673;52.480;13.348;2023-08-31T01:55:18;4.20;;;3.65;;
7263;SDS011;3673;52.480;13.348;2023-08-31T01:57:46;2.80;;;2.60;;
7263;SDS011;3673;52.480;13.348;2023-08-31T02:00:15;3.65;;;2.70;;
7263;SDS011;3673;52.480;13.348;2023-08-31T02:02:44;3.00;;;2.63;;
7263;SDS011;3673;52.480;13.348;2023-08-31T02:05:11;3.00;;;2.70;;
7263;SDS011;3673;52.480;13.348;2023-08-31T02:07:37;6.53;;;3.25;;
7263;SDS011;3673;52.480;13.348;2023-08-31T02:10:05;3.05;;;2.75;;
7263;SDS011;3673;52.480;13.348;2023-08-31T02:12:33;3.50;;;2.63;;
7263;SDS011;3673;52.480;13.348;2023-08-31T02:15:01;2.85;;;2.55;;
7263;SDS011;3673;52.480;13.348;2023-08-31T02:17:30;4.03;;;2.80;;
7263;SDS011;3673;52.480;13.348;2023-08-31T02:19:57;3.45;;;2.47;;
7263;SDS011;3673;52.480;13.348;2023-08-31T02:22:25;3.42;;;2.92;;
7263;SDS011;3673;52.480;13.348;2023-08-31T02:24:52;3.80;;;2.20;;
7263;SDS011;3673;52.480;13.348;2023-08-31T02:27:19;2.97;;;2.35;;
7263;SDS011;3673;52.480;13.348;2023-08-31T02:29:46;2.72;;;2.05;;
7263;SDS011;3673;52.480;13.348;2023-08-31T02:32:13;3.42;;;2.30;;
7263;SDS011;3673;52.480;13.348;2023-08-31T02:34:41;2.28;;;2.08;;
7263;SDS011;3673;52.480;13.348;2023-08-31T02:37:07;3.15;;;2.20;;
7263;SDS011;3673;52.480;13.348;2023-08-31T02:39:34;3.00;;;2.53;;
7263;SDS011;3673;52.480;13.348;2023-08-31T02:42:01;3.58;;;1.92;;
7263;SDS011;3673;52.480;13.348;2023-08-31T02:44:30;2.15;;;1.92;;
7263;SDS011;3673;52.480;13.348;2023-08-31T02:46:56;3.75;;;2.15;;
7263;SDS011;3673;52.480;13.348;2023-08-31T02:49:23;2.47;;;2.28;;
7263;SDS011;3673;52.480;13.348;2023-08-31T02:51:51;2.80;;;2.42;;
7263;SDS011;3673;52.480;13.348;2023-08-31T02:54:18;6.53;;;2.00;;
7263;SDS011;3673;52.480;13.348;2023-08-31T02:56:45;2.47;;;1.80;;
7263;SDS011;3673;52.480;13.348;2023-08-31T02:59:11;2.35;;;1.90;;
7263;SDS011;3673;52.480;13.348;2023-08-31T03:01:39;3.03;;;2.13;;
7263;SDS011;3673;52.480;13.348;2023-08-31T03:04:05;1.98;;;1.77;;
7263;SDS011;3673;52.480;13.348;2023-08-31T03:06:32;2.88;;;1.88;;
7263;SDS011;3673;52.480;13.348;2023-08-31T03:09:00;4.05;;;2.03;;
7263;SDS011;3673;52.480;13.348;2023-08-31T03:11:29;2.80;;;1.90;;
7263;SDS011;3673;52.480;13.348;2023-08-31T03:13:56;5.90;;;1.80;;
7263;SDS011;3673;52.480;13.348;2023-08-31T03:16:23;2.13;;;1.85;;
7263;SDS011;3673;52.480;13.348;2023-08-31T03:18:50;2.40;;;2.20;;
7263;SDS011;3673;52.480;13.348;2023-08-31T03:21:16;4.38;;;2.42;;
7263;SDS011;3673;52.480;13.348;2023-08-31T03:23:43;2.20;;;1.90;;
7263;SDS011;3673;52.480;13.348;2023-08-31T03:26:11;2.80;;;2.38;;
7263;SDS011;3673;52.480;13.348;2023-08-31T03:28:38;2.38;;;2.05;;
7263;SDS011;3673;52.480;13.348;2023-08-31T03:31:05;4.20;;;2.10;;
7263;SDS011;3673;52.480;13.348;2023-08-31T03:33:32;2.28;;;1.98;;
7263;SDS011;3673;52.480;13.348;2023-08-31T03:35:59;2.30;;;2.05;;
7263;SDS011;3673;52.480;13.348;2023-08-31T03:38:29;3.53;;;2.58;;
7263;SDS011;3673;52.480;13.348;2023-08-31T03:40:56;2.80;;;1.90;;
7263;SDS011;3673;52.480;13.348;2023-08-31T03:43:25;3.03;;;2.60;;
7263;SDS011;3673;52.480;13.348;2023-08-31T03:45:53;3.38;;;2.47;;
7263;SDS011;3673;52.480;13.348;2023-08-31T03:48:21;2.30;;;2.00;;
7263;SDS011;3673;52.480;13.348;2023-08-31T03:50:48;3.10;;;2.63;;
7263;SDS011;3673;52.480;13.348;2023-08-31T03:53:16;3.40;;;3.00;;
7263;SDS011;3673;52.480;13.348;2023-08-31T03:55:43;3.05;;;2.72;;
7263;SDS011;3673;52.480;13.348;2023-08-31T03:58:10;5.80;;;3.22;;
7263;SDS011;3673;52.480;13.348;2023-08-31T04:00:38;3.75;;;2.70;;
7263;SDS011;3673;52.480;13.348;2023-08-31T04:03:05;3.08;;;2.78;;
7263;SDS011;3673;52.480;13.348;2023-08-31T04:05:32;6.97;;;3.65;;
7263;SDS011;3673;52.480;13.348;2023-08-31T04:08:00;5.10;;;3.13;;
7263;SDS011;3673;52.480;13.348;2023-08-31T04:10:27;10.35;;;3.25;;
7263;SDS011;3673;52.480;13.348;2023-08-31T04:12:54;4.03;;;3.10;;
7263;SDS011;3673;52.480;13.348;2023-08-31T04:15:21;4.13;;;3.45;;
7263;SDS011;3673;52.480;13.348;2023-08-31T04:17:50;4.65;;;3.65;;
7263;SDS011;3673;52.480;13.348;2023-08-31T04:20:17;6.05;;;4.13;;
7263;SDS011;3673;52.480;13.348;2023-08-31T04:22:44;9.20;;;5.20;;
7263;SDS011;3673;52.480;13.348;2023-08-31T04:25:11;6.82;;;4.10;;
7263;SDS011;3673;52.480;13.348;2023-08-31T04:27:37;6.78;;;5.10;;
7263;SDS011;3673;52.480;13.348;2023-08-31T04:30:05;5.78;;;4.55;;
7263;SDS011;3673;52.480;13.348;2023-08-31T04:32:33;5.00;;;4.40;;
7263;SDS011;3673;52.480;13.348;2023-08-31T04:35:01;6.50;;;5.03;;
7263;SDS011;3673;52.480;13.348;2023-08-31T04:37:30;6.00;;;5.40;;
7263;SDS011;3673;52.480;13.348;2023-08-31T04:39:57;6.47;;;4.97;;
7263;SDS011;3673;52.480;13.348;2023-08-31T04:42:24;7.15;;;5.53;;
7263;SDS011;3673;52.480;13.348;2023-08-31T04:44:51;6.95;;;5.70;;
7263;SDS011;3673;52.480;13.348;2023-08-31T04:47:17;5.68;;;5.10;;
7263;SDS011;3673;52.480;13.348;2023-08-31T04:49:44;7.72;;;5.53;;
7263;SDS011;3673;52.480;13.348;2023-08-31T04:52:12;7.45;;;5.47;;
7263;SDS011;3673;52.480;13.348;2023-08-31T04:54:39;6.88;;;5.55;;
7263;SDS011;3673;52.480;13.348;2023-08-31T04:57:06;10.00;;;5.90;;
7263;SDS011;3673;52.480;13.348;2023-08-31T04:59:33;7.43;;;5.63;;
7263;SDS011;3673;52.480;13.348;2023-08-31T05:02:00;7.45;;;5.95;;
7263;SDS011;3673;52.480;13.348;2023-08-31T05:04:26;8.15;;;5.75;;
7263;SDS011;3673;52.480;13.348;2023-08-31T05:06:54;7.90;;;5.63;;
7263;SDS011;3673;52.480;13.348;2023-08-31T05:09:23;8.45;;;5.60;;
7263;SDS011;3673;52.480;13.348;2023-08-31T05:11:51;8.25;;;6.25;;
7263;SDS011;3673;52.480;13.348;2023-08-31T05:14:18;7.22;;;6.00;;
7263;SDS011;3673;52.480;13.348;2023-08-31T05:16:45;8.35;;;6.63;;
7263;SDS011;3673;52.480;13.348;2023-08-31T05:19:12;8.88;;;6.45;;
7263;SDS011;3673;52.480;13.348;2023-08-31T05:21:39;8.85;;;6.60;;
7263;SDS011;3673;52.480;13.348;2023-08-31T05:24:05;9.43;;;6.13;;
7263;SDS011;3673;52.480;13.348;2023-08-31T05:26:34;8.02;;;6.25;;
7263;SDS011;3673;52.480;13.348;2023-08-31T05:29:00;7.03;;;6.22;;
7263;SDS011;3673;52.480;13.348;2023-08-31T05:31:30;7.25;;;6.45;;
7263;SDS011;3673;52.480;13.348;2023-08-31T05:33:56;9.13;;;6.28;;
7263;SDS011;3673;52.480;13.348;2023-08-31T05:36:23;10.65;;;6.43;;
7263;SDS011;3673;52.480;13.348;2023-08-31T05:38:50;8.30;;;6.68;;
7263;SDS011;3673;52.480;13.348;2023-08-31T05:41:18;10.32;;;6.25;;
7263;SDS011;3673;52.480;13.348;2023-08-31T05:43:46;9.82;;;6.95;;
7263;SDS011;3673;52.480;13.348;2023-08-31T05:46:13;7.10;;;6.40;;
7263;SDS011;3673;52.480;13.348;2023-08-31T05:48:39;7.28;;;6.57;;
7263;SDS011;3673;52.480;13.348;2023-08-31T05:51:06;8.40;;;6.18;;
7263;SDS011;3673;52.480;13.348;2023-08-31T05:53:33;8.52;;;6.75;;
7263;SDS011;3673;52.480;13.348;2023-08-31T05:56:00;8.60;;;7.15;;
7263;SDS011;3673;52.480;13.348;2023-08-31T05:58:30;8.77;;;6.38;;
7263;SDS011;3673;52.480;13.348;2023-08-31T06:00:59;10.90;;;7.03;;
7263;SDS011;3673;52.480;13.348;2023-08-31T06:03:26;10.77;;;6.38;;
7263;SDS011;3673;52.480;13.348;2023-08-31T06:05:53;7.88;;;6.20;;
7263;SDS011;3673;52.480;13.348;2023-08-31T06:08:20;10.60;;;7.60;;
7263;SDS011;3673;52.480;13.348;2023-08-31T06:10:47;11.93;;;6.80;;
7263;SDS011;3673;52.480;13.348;2023-08-31T06:13:14;10.88;;;6.88;;
7263;SDS011;3673;52.480;13.348;2023-08-31T06:15:41;10.48;;;7.18;;
7263;SDS011;3673;52.480;13.348;2023-08-31T06:18:10;8.63;;;6.47;;
7263;SDS011;3673;52.480;13.348;2023-08-31T06:20:37;7.93;;;6.40;;
7263;SDS011;3673;52.480;13.348;2023-08-31T06:23:04;7.20;;;6.50;;
7263;SDS011;3673;52.480;13.348;2023-08-31T06:25:31;8.13;;;5.90;;
7263;SDS011;3673;52.480;13.348;2023-08-31T06:27:58;8.63;;;6.63;;
7263;SDS011;3673;52.480;13.348;2023-08-31T06:30:25;8.25;;;6.35;;
7263;SDS011;3673;52.480;13.348;2023-08-31T06:32:51;11.07;;;7.30;;
7263;SDS011;3673;52.480;13.348;2023-08-31T06:35:19;7.68;;;6.35;;
7263;SDS011;3673;52.480;13.348;2023-08-31T06:37:46;10.60;;;6.45;;
7263;SDS011;3673;52.480;13.348;2023-08-31T06:40:15;7.70;;;6.90;;
7263;SDS011;3673;52.480;13.348;2023-08-31T06:42:41;9.10;;;6.50;;
7263;SDS011;3673;52.480;13.348;2023-08-31T06:45:09;8.82;;;6.40;;
7263;SDS011;3673;52.480;13.348;2023-08-31T06:47:36;9.30;;;6.97;;
7263;SDS011;3673;52.480;13.348;2023-08-31T06:50:03;10.35;;;6.50;;
7263;SDS011;3673;52.480;13.348;2023-08-31T06:52:32;8.13;;;6.00;;
7263;SDS011;3673;52.480;13.348;2023-08-31T06:55:00;8.15;;;6.15;;
7263;SDS011;3673;52.480;13.348;2023-08-31T06:57:27;8.50;;;6.57;;
7263;SDS011;3673;52.480;13.348;2023-08-31T06:59:53;7.60;;;6.72;;
7263;SDS011;3673;52.480;13.348;2023-08-31T07:02:20;8.45;;;6.22;;
7263;SDS011;3673;52.480;13.348;2023-08-31T07:04:49;9.48;;;6.75;;
7263;SDS011;3673;52.480;13.348;2023-08-31T07:07:17;13.68;;;7.82;;
7263;SDS011;3673;52.480;13.348;2023-08-31T07:09:45;8.52;;;5.78;;
7263;SDS011;3673;52.480;13.348;2023-08-31T07:12:13;7.68;;;5.65;;
7263;SDS011;3673;52.480;13.348;2023-08-31T07:14:40;8.07;;;5.80;;
7263;SDS011;3673;52.480;13.348;2023-08-31T07:17:06;8.23;;;6.03;;
7263;SDS011;3673;52.480;13.348;2023-08-31T07:19:35;7.72;;;5.38;;
7263;SDS011;3673;52.480;13.348;2023-08-31T07:22:02;7.47;;;5.78;;
7263;SDS011;3673;52.480;13.348;2023-08-31T07:24:31;7.35;;;5.97;;
7263;SDS011;3673;52.480;13.348;2023-08-31T07:27:00;10.00;;;6.20;;
7263;SDS011;3673;52.480;13.348;2023-08-31T07:29:28;7.45;;;6.18;;
7263;SDS011;3673;52.480;13.348;2023-08-31T07:31:56;7.55;;;5.78;;
7263;SDS011;3673;52.480;13.348;2023-08-31T07:34:23;7.03;;;5.47;;
7263;SDS011;3673;52.480;13.348;2023-08-31T07:36:50;6.97;;;5.57;;
7263;SDS011;3673;52.480;13.348;2023-08-31T07:39:16;6.53;;;5.05;;
7263;SDS011;3673;52.480;13.348;2023-08-31T07:41:43;6.10;;;5.30;;
7263;SDS011;3673;52.480;13.348;2023-08-31T07:44:12;8.23;;;5.15;;
7263;SDS011;3673;52.480;13.348;2023-08-31T07:46:38;8.70;;;5.40;;
7263;SDS011;3673;52.480;13.348;2023-08-31T07:49:05;7.25;;;3.50;;
7263;SDS011;3673;52.480;13.348;2023-08-31T07:51:32;6.88;;;3.75;;
7263;SDS011;3673;52.480;13.348;2023-08-31T07:53:59;7.63;;;3.22;;
7263;SDS011;3673;52.480;13.348;2023-08-31T07:56:28;5.95;;;4.45;;
7263;SDS011;3673;52.480;13.348;2023-08-31T07:58:54;8.90;;;3.80;;
7263;SDS011;3673;52.480;13.348;2023-08-31T08:01:22;5.35;;;3.60;;
7263;SDS011;3673;52.480;13.348;2023-08-31T08:03:49;5.57;;;3.47;;
7263;SDS011;3673;52.480;13.348;2023-08-31T08:06:16;5.28;;;3.85;;
7263;SDS011;3673;52.480;13.348;2023-08-31T08:08:43;6.47;;;4.20;;
7263;SDS011;3673;52.480;13.348;2023-08-31T08:11:10;10.00;;;5.40;;
7263;SDS011;3673;52.480;13.348;2023-08-31T08:13:37;6.68;;;3.80;;
7263;SDS011;3673;52.480;13.348;2023-08-31T08:16:04;5.57;;;4.20;;
7263;SDS011;3673;52.480;13.348;2023-08-31T08:18:32;5.03;;;4.28;;
7263;SDS011;3673;52.480;13.348;2023-08-31T08:20:59;11.15;;;5.15;;
7263;SDS011;3673;52.480;13.348;2023-08-31T08:23:26;5.68;;;3.75;;
7263;SDS011;3673;52.480;13.348;2023-08-31T08:25:53;5.47;;;3.53;;
7263;SDS011;3673;52.480;13.348;2023-08-31T08:28:19;3.95;;;3.00;;
7263;SDS011;3673;52.480;13.348;2023-08-31T08:30:46;4.10;;;2.53;;
7263;SDS011;3673;52.480;13.348;2023-08-31T08:33:13;6.45;;;3.10;;
7263;SDS011;3673;52.480;13.348;2023-08-31T08:35:41;5.65;;;2.70;;
7263;SDS011;3673;52.480;13.348;2023-08-31T08:38:07;7.63;;;3.15;;
7263;SDS011;3673;52.480;13.348;2023-08-31T08:40:34;3.65;;;2.47;;
7263;SDS011;3673;52.480;13.348;2023-08-31T08:43:01;4.70;;;2.35;;
7263;SDS011;3673;52.480;13.348;2023-08-31T08:45:35;4.15;;;2.45;;
7263;SDS011;3673;52.480;13.348;2023-08-31T08:48:06;3.13;;;1.95;;
7263;SDS011;3673;52.480;13.348;2023-08-31T08:50:35;4.63;;;2.80;;
7263;SDS011;3673;52.480;13.348;2023-08-31T08:53:04;10.85;;;2.63;;
7263;SDS011;3673;52.480;13.348;2023-08-31T08:55:32;3.45;;;2.05;;
7263;SDS011;3673;52.480;13.348;2023-08-31T08:57:59;4.78;;;2.20;;
7263;SDS011;3673;52.480;13.348;2023-08-31T09:00:26;5.07;;;2.20;;
7263;SDS011;3673;52.480;13.348;2023-08-31T09:02:53;2.83;;;1.80;;
7263;SDS011;3673;52.480;13.348;2023-08-31T09:05:20;5.10;;;2.05;;
7263;SDS011;3673;52.480;13.348;2023-08-31T09:08:05;3.70;;;2.17;;
7263;SDS011;3673;52.480;13.348;2023-08-31T09:10:35;6.22;;;2.00;;
7263;SDS011;3673;52.480;13.348;2023-08-31T09:13:07;4.25;;;1.90;;
7263;SDS011;3673;52.480;13.348;2023-08-31T09:15:38;6.18;;;1.98;;
7263;SDS011;3673;52.480;13.348;2023-08-31T09:18:07;3.15;;;1.83;;
7263;SDS011;3673;52.480;13.348;2023-08-31T09:20:42;10.13;;;2.22;;
7263;SDS011;3673;52.480;13.348;2023-08-31T09:23:14;4.18;;;1.70;;
7263;SDS011;3673;52.480;13.348;2023-08-31T09:25:42;3.90;;;1.90;;
7263;SDS011;3673;52.480;13.348;2023-08-31T09:28:12;4.03;;;1.85;;
7263;SDS011;3673;52.480;13.348;2023-08-31T09:30:39;2.88;;;1.77;;
7263;SDS011;3673;52.480;13.348;2023-08-31T09:33:06;3.03;;;1.85;;
7263;SDS011;3673;52.480;13.348;2023-08-31T09:35:38;4.47;;;2.08;;
7263;SDS011;3673;52.480;13.348;2023-08-31T09:38:07;3.33;;;1.45;;
7263;SDS011;3673;52.480;13.348;2023-08-31T09:40:37;3.63;;;1.45;;
7263;SDS011;3673;52.480;13.348;2023-08-31T09:43:03;5.93;;;1.48;;
7263;SDS011;3673;52.480;13.348;2023-08-31T09:45:31;3.40;;;1.90;;
7263;SDS011;3673;52.480;13.348;2023-08-31T09:47:59;6.10;;;1.65;;
7263;SDS011;3673;52.480;13.348;2023-08-31T09:50:28;1.77;;;1.23;;
7263;SDS011;3673;52.480;13.348;2023-08-31T09:52:56;3.63;;;1.05;;
7263;SDS011;3673;52.480;13.348;2023-08-31T09:55:28;1.80;;;1.15;;
7263;SDS011;3673;52.480;13.348;2023-08-31T09:57:58;1.90;;;1.25;;
7263;SDS011;3673;52.480;13.348;2023-08-31T10:00:27;3.25;;;1.63;;
7263;SDS011;3673;52.480;13.348;2023-08-31T10:02:58;2.15;;;1.50;;
7263;SDS011;3673;52.480;13.348;2023-08-31T10:05:29;3.53;;;1.10;;
7263;SDS011;3673;52.480;13.348;2023-08-31T10:07:56;2.35;;;1.55;;
7263;SDS011;3673;52.480;13.348;2023-08-31T10:10:24;5.63;;;2.33;;
7263;SDS011;3673;52.480;13.348;2023-08-31T10:12:50;3.28;;;1.48;;
7263;SDS011;3673;52.480;13.348;2023-08-31T10:15:19;4.55;;;1.52;;
7263;SDS011;3673;52.480;13.348;2023-08-31T10:17:46;4.00;;;2.50;;
7263;SDS011;3673;52.480;13.348;2023-08-31T10:20:14;1.98;;;1.30;;
7263;SDS011;3673;52.480;13.348;2023-08-31T10:22:43;3.47;;;1.17;;
7263;SDS011;3673;52.480;13.348;2023-08-31T10:25:10;2.55;;;1.40;;
7263;SDS011;3673;52.480;13.348;2023-08-31T10:27:38;2.25;;;1.08;;
7263;SDS011;3673;52.480;13.348;2023-08-31T10:30:12;2.00;;;1.38;;
7263;SDS011;3673;52.480;13.348;2023-08-31T10:32:43;2.15;;;1.42;;
7263;SDS011;3673;52.480;13.348;2023-08-31T10:35:09;3.47;;;1.27;;
7263;SDS011;3673;52.480;13.348;2023-08-31T10:37:36;4.00;;;1.42;;
7263;SDS011;3673;52.480;13.348;2023-08-31T10:40:06;4.25;;;1.50;;
7263;SDS011;3673;52.480;13.348;2023-08-31T10:42:43;2.60;;;1.67;;
7263;SDS011;3673;52.480;13.348;2023-08-31T10:45:12;4.22;;;2.17;;
7263;SDS011;3673;52.480;13.348;2023-08-31T10:47:40;8.75;;;2.08;;
7263;SDS011;3673;52.480;13.348;2023-08-31T10:50:15;5.25;;;2.38;;
7263;SDS011;3673;52.480;13.348;2023-08-31T10:52:45;6.90;;;2.38;;
7263;SDS011;3673;52.480;13.348;2023-08-31T10:55:11;5.28;;;2.05;;
7263;SDS011;3673;52.480;13.348;2023-08-31T10:57:39;2.50;;;1.70;;
7263;SDS011;3673;52.480;13.348;2023-08-31T11:00:07;3.78;;;1.73;;
7263;SDS011;3673;52.480;13.348;2023-08-31T11:02:36;3.95;;;2.17;;
7263;SDS011;3673;52.480;13.348;2023-08-31T11:05:09;3.90;;;1.90;;
7263;SDS011;3673;52.480;13.348;2023-08-31T11:07:39;7.55;;;2.10;;
7263;SDS011;3673;52.480;13.348;2023-08-31T11:10:08;4.18;;;2.17;;
7263;SDS011;3673;52.480;13.348;2023-08-31T11:12:40;7.00;;;2.42;;
7263;SDS011;3673;52.480;13.348;2023-08-31T11:15:10;4.00;;;1.90;;
7263;SDS011;3673;52.480;13.348;2023-08-31T11:17:39;8.40;;;2.33;;
7263;SDS011;3673;52.480;13.348;2023-08-31T11:20:07;2.97;;;1.83;;
7263;SDS011;3673;52.480;13.348;2023-08-31T11:22:39;4.47;;;1.70;;
7263;SDS011;3673;52.480;13.348;2023-08-31T11:25:10;2.67;;;1.40;;
7263;SDS011;3673;52.480;13.348;2023-08-31T11:27:38;4.70;;;1.70;;
7263;SDS011;3673;52.480;13.348;2023-08-31T11:30:11;5.35;;;1.58;;
7263;SDS011;3673;52.480;13.348;2023-08-31T11:32:44;4.40;;;2.30;;
7263;SDS011;3673;52.480;13.348;2023-08-31T11:35:14;4.47;;;1.23;;
7263;SDS011;3673;52.480;13.348;2023-08-31T11:37:42;3.33;;;2.35;;
7263;SDS011;3673;52.480;13.348;2023-08-31T11:40:10;2.60;;;1.60;;
7263;SDS011;3673;52.480;13.348;2023-08-31T11:42:39;4.13;;;2.25;;
7263;SDS011;3673;52.480;13.348;2023-08-31T11:45:07;6.65;;;2.45;;
7263;SDS011;3673;52.480;13.348;2023-08-31T11:47:37;5.30;;;2.28;;
7263;SDS011;3673;52.480;13.348;2023-08-31T11:50:05;4.60;;;1.52;;
7263;SDS011;3673;52.480;13.348;2023-08-31T11:52:35;6.45;;;2.70;;
7263;SDS011;3673;52.480;13.348;2023-08-31T11:55:02;7.28;;;3.35;;
7263;SDS011;3673;52.480;13.348;2023-08-31T11:57:35;10.05;;;3.65;;
7263;SDS011;3673;52.480;13.348;2023-08-31T12:00:02;6.68;;;3.67;;
7263;SDS011;3673;52.480;13.348;2023-08-31T12:02:34;7.22;;;2.83;;
7263;SDS011;3673;52.480;13.348;2023-08-31T12:05:01;7.03;;;2.15;;
7263;SDS011;3673;52.480;13.348;2023-08-31T12:07:30;3.33;;;1.95;;
7263;SDS011;3673;52.480;13.348;2023-08-31T12:10:03;4.90;;;2.70;;
7263;SDS011;3673;52.480;13.348;2023-08-31T12:12:30;7.78;;;3.75;;
7263;SDS011;3673;52.480;13.348;2023-08-31T12:14:59;6.07;;;2.95;;
7263;SDS011;3673;52.480;13.348;2023-08-31T12:17:28;7.45;;;3.45;;
7263;SDS011;3673;52.480;13.348;2023-08-31T12:20:02;4.63;;;3.08;;
7263;SDS011;3673;52.480;13.348;2023-08-31T12:22:31;4.68;;;2.70;;
7263;SDS011;3673;52.480;13.348;2023-08-31T12:24:58;3.47;;;1.77;;
7263;SDS011;3673;52.480;13.348;2023-08-31T12:27:26;4.88;;;1.85;;
7263;SDS011;3673;52.480;13.348;2023-08-31T12:29:54;2.97;;;2.15;;
7263;SDS011;3673;52.480;13.348;2023-08-31T12:32:22;3.28;;;2.22;;
7263;SDS011;3673;52.480;13.348;2023-08-31T12:34:49;4.00;;;1.95;;
7263;SDS011;3673;52.480;13.348;2023-08-31T12:37:16;3.50;;;2.17;;
7263;SDS011;3673;52.480;13.348;2023-08-31T12:39:42;3.85;;;2.63;;
7263;SDS011;3673;52.480;13.348;2023-08-31T12:42:10;2.85;;;1.90;;
7263;SDS011;3673;52.480;13.348;2023-08-31T12:44:38;3.25;;;1.70;;
7263;SDS011;3673;52.480;13.348;2023-08-31T12:47:05;3.55;;;1.50;;
7263;SDS011;3673;52.480;13.348;2023-08-31T12:49:32;3.78;;;1.50;;
7263;SDS011;3673;52.480;13.348;2023-08-31T12:51:59;3.72;;;1.50;;
7263;SDS011;3673;52.480;13.348;2023-08-31T12:54:26;5.88;;;1.38;;
7263;SDS011;3673;52.480;13.348;2023-08-31T12:56:52;1.45;;;1.00;;
7263;SDS011;3673;52.480;13.348;2023-08-31T12:59:19;2.42;;;1.52;;
7263;SDS011;3673;52.480;13.348;2023-08-31T13:01:47;2.35;;;1.35;;
7263;SDS011;3673;52.480;13.348;2023-08-31T13:04:14;2.15;;;1.10;;
7263;SDS011;3673;52.480;13.348;2023-08-31T13:06:40;3.22;;;1.40;;
7263;SDS011;3673;52.480;13.348;2023-08-31T13:09:07;1.38;;;0.90;;
7263;SDS011;3673;52.480;13.348;2023-08-31T13:11:34;4.10;;;1.25;;
7263;SDS011;3673;52.480;13.348;2023-08-31T13:14:01;2.17;;;1.10;;
7263;SDS011;3673;52.480;13.348;2023-08-31T13:16:28;2.10;;;1.15;;
7263;SDS011;3673;52.480;13.348;2023-08-31T13:18:56;3.13;;;1.15;;
7263;SDS011;3673;52.480;13.348;2023-08-31T13:21:23;1.40;;;0.95;;
7263;SDS011;3673;52.480;13.348;2023-08-31T13:23:49;1.48;;;0.98;;
7263;SDS011;3673;52.480;13.348;2023-08-31T13:26:16;1.33;;;1.02;;
7263;SDS011;3673;52.480;13.348;2023-08-31T13:28:43;3.85;;;1.00;;
7263;SDS011;3673;52.480;13.348;2023-08-31T13:31:10;4.35;;;1.40;;
7263;SDS011;3673;52.480;13.348;2023-08-31T13:33:36;1.67;;;1.10;;
7263;SDS011;3673;52.480;13.348;2023-08-31T13:36:05;2.42;;;1.17;;
7263;SDS011;3673;52.480;13.348;2023-08-31T13:38:33;1.98;;;1.10;;
7263;SDS011;3673;52.480;13.348;2023-08-31T13:40:59;2.45;;;1.30;;
7263;SDS011;3673;52.480;13.348;2023-08-31T13:43:28;1.65;;;1.30;;
7263;SDS011;3673;52.480;13.348;2023-08-31T13:45:55;2.25;;;1.05;;
7263;SDS011;3673;52.480;13.348;2023-08-31T13:48:22;2.10;;;1.20;;
7263;SDS011;3673;52.480;13.348;2023-08-31T13:50:49;3.17;;;1.65;;
7263;SDS011;3673;52.480;13.348;2023-08-31T13:53:17;2.33;;;1.60;;
7263;SDS011;3673;52.480;13.348;2023-08-31T13:55:44;2.33;;;1.85;;
7263;SDS011;3673;52.480;13.348;2023-08-31T13:58:11;5.30;;;1.52;;
7263;SDS011;3673;52.480;13.348;2023-08-31T14:00:38;3.42;;;1.33;;
7263;SDS011;3673;52.480;13.348;2023-08-31T14:03:06;2.25;;;1.20;;
7263;SDS011;3673;52.480;13.348;2023-08-31T14:05:33;4.63;;;1.70;;
7263;SDS011;3673;52.480;13.348;2023-08-31T14:08:00;1.20;;;1.10;;
7263;SDS011;3673;52.480;13.348;2023-08-31T14:10:30;2.10;;;1.40;;
7263;SDS011;3673;52.480;13.348;2023-08-31T14:12:58;4.72;;;1.73;;
7263;SDS011;3673;52.480;13.348;2023-08-31T14:15:25;2.10;;;1.67;;
7263;SDS011;3673;52.480;13.348;2023-08-31T14:17:52;2.40;;;1.88;;
7263;SDS011;3673;52.480;13.348;2023-08-31T14:20:19;3.65;;;1.35;;
7263;SDS011;3673;52.480;13.348;2023-08-31T14:22:45;3.70;;;1.10;;
7263;SDS011;3673;52.480;13.348;2023-08-31T14:25:12;2.97;;;1.00;;
7263;SDS011;3673;52.480;13.348;2023-08-31T14:27:41;2.03;;;1.17;;
7263;SDS011;3673;52.480;13.348;2023-08-31T14:30:08;2.50;;;1.00;;
7263;SDS011;3673;52.480;13.348;2023-08-31T14:32:36;2.45;;;0.80;;
7263;SDS011;3673;52.480;13.348;2023-08-31T14:35:03;1.17;;;0.90;;
7263;SDS011;3673;52.480;13.348;2023-08-31T14:37:31;1.75;;;0.55;;
7263;SDS011;3673;52.480;13.348;2023-08-31T14:39:58;1.85;;;0.70;;
7263;SDS011;3673;52.480;13.348;2023-08-31T14:42:24;2.25;;;0.88;;
7263;SDS011;3673;52.480;13.348;2023-08-31T14:44:52;1.27;;;0.93;;
7263;SDS011;3673;52.480;13.348;2023-08-31T14:47:19;1.70;;;1.10;;
7263;SDS011;3673;52.480;13.348;2023-08-31T14:49:46;1.42;;;0.75;;
7263;SDS011;3673;52.480;13.348;2023-08-31T14:52:12;1.40;;;0.98;;
7263;SDS011;3673;52.480;13.348;2023-08-31T14:54:39;1.45;;;0.90;;
7263;SDS011;3673;52.480;13.348;2023-08-31T14:57:06;6.40;;;1.35;;
7263;SDS011;3673;52.480;13.348;2023-08-31T14:59:33;1.35;;;0.75;;
7263;SDS011;3673;52.480;13.348;2023-08-31T15:02:01;1.75;;;0.57;;
7263;SDS011;3673;52.480;13.348;2023-08-31T15:04:30;6.00;;;3.85;;